sensor_id;sensor_type;location;lat;lon;timestamp;P1;durP1;ratioP1;P2;durP2;ratioP2
41719;SDS011;27405;53.316;-6.294;2024-03-22T00:01:52;43.70;;;7.63;;
41719;SDS011;27405;53.316;-6.294;2024-03-22T00:04:18;39.72;;;7.15;;
41719;SDS011;27405;53.316;-6.294;2024-03-22T00:06:45;44.97;;;7.38;;
41719;SDS011;27405;53.316;-6.294;2024-03-22T00:09:12;42.03;;;8.20;;
41719;SDS011;27405;53.316;-6.294;2024-03-22T00:11:39;41.85;;;7.65;;
41719;SDS011;27405;53.316;-6.294;2024-03-22T00:14:05;46.75;;;9.18;;
41719;SDS011;27405;53.316;-6.294;2024-03-22T00:16:32;50.25;;;8.55;;
41719;SDS011;27405;53.316;-6.294;2024-03-22T00:18:57;46.90;;;8.25;;
41719;SDS011;27405;53.316;-6.294;2024-03-22T00:21:23;50.03;;;8.25;;
41719;SDS011;27405;53.316;-6.294;2024-03-22T00:23:49;46.13;;;8.15;;
41719;SDS011;27405;53.316;-6.294;2024-03-22T00:26:15;46.17;;;8.27;;
41719;SDS011;27405;53.316;-6.294;2024-03-22T00:28:40;52.47;;;8.90;;
41719;SDS011;27405;53.316;-6.294;2024-03-22T00:31:07;48.92;;;8.45;;
41719;SDS011;27405;53.316;-6.294;2024-03-22T00:33:33;49.45;;;8.88;;
41719;SDS011;27405;53.316;-6.294;2024-03-22T00:35:58;51.67;;;8.43;;
41719;SDS011;27405;53.316;-6.294;2024-03-22T00:38:24;52.78;;;9.48;;
41719;SDS011;27405;53.316;-6.294;2024-03-22T00:40:50;47.80;;;8.93;;
41719;SDS011;27405;53.316;-6.294;2024-03-22T00:43:15;47.53;;;8.80;;
41719;SDS011;27405;53.316;-6.294;2024-03-22T00:45:41;55.53;;;9.90;;
41719;SDS011;27405;53.316;-6.294;2024-03-22T00:48:07;51.75;;;8.82;;
41719;SDS011;27405;53.316;-6.294;2024-03-22T00:50:32;49.05;;;9.32;;
41719;SDS011;27405;53.316;-6.294;2024-03-22T00:52:58;51.35;;;8.98;;
41719;SDS011;27405;53.316;-6.294;2024-03-22T00:55:24;42.20;;;8.98;;
41719;SDS011;27405;53.316;-6.294;2024-03-22T00:57:50;50.15;;;8.77;;
41719;SDS011;27405;53.316;-6.294;2024-03-22T01:00:16;46.50;;;8.70;;
41719;SDS011;27405;53.316;-6.294;2024-03-22T01:02:42;57.33;;;9.65;;
41719;SDS011;27405;53.316;-6.294;2024-03-22T01:05:08;45.25;;;8.35;;
41719;SDS011;27405;53.316;-6.294;2024-03-22T01:07:35;44.10;;;8.32;;
41719;SDS011;27405;53.316;-6.294;2024-03-22T01:10:01;49.80;;;8.80;;
41719;SDS011;27405;53.316;-6.294;2024-03-22T01:12:28;46.35;;;9.35;;
41719;SDS011;27405;53.316;-6.294;2024-03-22T01:14:54;49.42;;;8.55;;
41719;SDS011;27405;53.316;-6.294;2024-03-22T01:17:19;55.22;;;9.18;;
41719;SDS011;27405;53.316;-6.294;2024-03-22T01:19:45;57.13;;;9.70;;
41719;SDS011;27405;53.316;-6.294;2024-03-22T01:22:10;51.15;;;9.57;;
41719;SDS011;27405;53.316;-6.294;2024-03-22T01:24:36;46.03;;;8.32;;
41719;SDS011;27405;53.316;-6.294;2024-03-22T01:27:02;50.83;;;8.77;;
41719;SDS011;27405;53.316;-6.294;2024-03-22T01:29:28;58.33;;;9.48;;
41719;SDS011;27405;53.316;-6.294;2024-03-22T01:31:56;52.97;;;8.85;;
41719;SDS011;27405;53.316;-6.294;2024-03-22T01:34:25;57.13;;;9.02;;
41719;SDS011;27405;53.316;-6.294;2024-03-22T01:36:51;47.78;;;8.20;;
41719;SDS011;27405;53.316;-6.294;2024-03-22T01:39:18;53.08;;;9.93;;
41719;SDS011;27405;53.316;-6.294;2024-03-22T01:41:46;57.80;;;10.73;;
41719;SDS011;27405;53.316;-6.294;2024-03-22T01:44:18;57.00;;;9.68;;
41719;SDS011;27405;53.316;-6.294;2024-03-22T01:46:44;54.50;;;8.70;;
41719;SDS011;27405;53.316;-6.294;2024-03-22T01:49:11;53.00;;;8.75;;
41719;SDS011;27405;53.316;-6.294;2024-03-22T01:51:39;51.33;;;9.00;;
41719;SDS011;27405;53.316;-6.294;2024-03-22T01:54:05;46.90;;;8.68;;
41719;SDS011;27405;53.316;-6.294;2024-03-22T01:56:34;57.23;;;10.20;;
41719;SDS011;27405;53.316;-6.294;2024-03-22T01:59:04;51.97;;;10.23;;
41719;SDS011;27405;53.316;-6.294;2024-03-22T02:01:30;55.75;;;9.10;;
41719;SDS011;27405;53.316;-6.294;2024-03-22T02:03:56;54.53;;;9.07;;
41719;SDS011;27405;53.316;-6.294;2024-03-22T02:06:22;58.45;;;10.30;;
41719;SDS011;27405;53.316;-6.294;2024-03-22T02:08:48;51.67;;;8.65;;
41719;SDS011;27405;53.316;-6.294;2024-03-22T02:11:13;51.88;;;8.23;;
41719;SDS011;27405;53.316;-6.294;2024-03-22T02:13:39;52.95;;;8.02;;
41719;SDS011;27405;53.316;-6.294;2024-03-22T02:16:05;46.20;;;8.20;;
41719;SDS011;27405;53.316;-6.294;2024-03-22T02:18:31;55.47;;;8.93;;
41719;SDS011;27405;53.316;-6.294;2024-03-22T02:20:56;47.55;;;8.93;;
41719;SDS011;27405;53.316;-6.294;2024-03-22T02:23:35;54.97;;;7.95;;
41719;SDS011;27405;53.316;-6.294;2024-03-22T02:26:02;53.58;;;9.32;;
41719;SDS011;27405;53.316;-6.294;2024-03-22T02:28:28;44.78;;;8.45;;
41719;SDS011;27405;53.316;-6.294;2024-03-22T02:30:55;54.97;;;8.20;;
41719;SDS011;27405;53.316;-6.294;2024-03-22T02:33:21;59.47;;;9.38;;
41719;SDS011;27405;53.316;-6.294;2024-03-22T02:35:47;53.22;;;8.55;;
41719;SDS011;27405;53.316;-6.294;2024-03-22T02:38:13;48.85;;;8.02;;
41719;SDS011;27405;53.316;-6.294;2024-03-22T02:40:39;50.50;;;7.93;;
41719;SDS011;27405;53.316;-6.294;2024-03-22T02:43:04;45.40;;;7.75;;
41719;SDS011;27405;53.316;-6.294;2024-03-22T02:45:30;50.88;;;8.25;;
41719;SDS011;27405;53.316;-6.294;2024-03-22T02:47:57;52.55;;;8.70;;
41719;SDS011;27405;53.316;-6.294;2024-03-22T02:50:22;46.90;;;7.82;;
41719;SDS011;27405;53.316;-6.294;2024-03-22T02:52:48;56.45;;;9.70;;
41719;SDS011;27405;53.316;-6.294;2024-03-22T02:55:15;51.58;;;8.65;;
41719;SDS011;27405;53.316;-6.294;2024-03-22T02:57:40;58.22;;;8.75;;
41719;SDS011;27405;53.316;-6.294;2024-03-22T03:00:06;48.03;;;8.38;;
41719;SDS011;27405;53.316;-6.294;2024-03-22T03:02:32;49.85;;;7.85;;
41719;SDS011;27405;53.316;-6.294;2024-03-22T03:04:58;43.38;;;8.15;;
41719;SDS011;27405;53.316;-6.294;2024-03-22T03:07:24;48.47;;;8.48;;
41719;SDS011;27405;53.316;-6.294;2024-03-22T03:09:49;49.78;;;8.65;;
41719;SDS011;27405;53.316;-6.294;2024-03-22T03:12:15;37.33;;;7.07;;
41719;SDS011;27405;53.316;-6.294;2024-03-22T03:14:41;59.60;;;8.80;;
41719;SDS011;27405;53.316;-6.294;2024-03-22T03:17:07;50.05;;;7.97;;
41719;SDS011;27405;53.316;-6.294;2024-03-22T03:19:32;45.80;;;8.07;;
41719;SDS011;27405;53.316;-6.294;2024-03-22T03:21:58;44.63;;;7.72;;
41719;SDS011;27405;53.316;-6.294;2024-03-22T03:24:24;52.03;;;9.27;;
41719;SDS011;27405;53.316;-6.294;2024-03-22T03:26:49;48.53;;;8.27;;
41719;SDS011;27405;53.316;-6.294;2024-03-22T03:29:15;42.45;;;7.90;;
41719;SDS011;27405;53.316;-6.294;2024-03-22T03:31:41;48.20;;;8.77;;
41719;SDS011;27405;53.316;-6.294;2024-03-22T03:34:06;37.13;;;7.35;;
41719;SDS011;27405;53.316;-6.294;2024-03-22T03:36:32;44.58;;;7.85;;
41719;SDS011;27405;53.316;-6.294;2024-03-22T03:38:57;42.47;;;7.05;;
41719;SDS011;27405;53.316;-6.294;2024-03-22T03:41:23;44.75;;;7.28;;
41719;SDS011;27405;53.316;-6.294;2024-03-22T03:43:49;35.78;;;6.60;;
41719;SDS011;27405;53.316;-6.294;2024-03-22T03:46:14;39.67;;;7.32;;
41719;SDS011;27405;53.316;-6.294;2024-03-22T03:48:40;41.35;;;6.47;;
41719;SDS011;27405;53.316;-6.294;2024-03-22T03:51:05;47.60;;;7.78;;
41719;SDS011;27405;53.316;-6.294;2024-03-22T03:53:31;48.55;;;8.32;;
41719;SDS011;27405;53.316;-6.294;2024-03-22T03:55:57;43.63;;;7.85;;
41719;SDS011;27405;53.316;-6.294;2024-03-22T03:58:22;47.33;;;8.02;;
41719;SDS011;27405;53.316;-6.294;2024-03-22T04:00:48;51.63;;;7.80;;
41719;SDS011;27405;53.316;-6.294;2024-03-22T04:03:14;39.85;;;8.10;;
41719;SDS011;27405;53.316;-6.294;2024-03-22T04:05:39;37.60;;;7.22;;
41719;SDS011;27405;53.316;-6.294;2024-03-22T04:08:05;43.10;;;7.20;;
41719;SDS011;27405;53.316;-6.294;2024-03-22T04:10:31;47.47;;;8.18;;
41719;SDS011;27405;53.316;-6.294;2024-03-22T04:12:57;49.15;;;7.10;;
41719;SDS011;27405;53.316;-6.294;2024-03-22T04:15:23;48.50;;;7.85;;
41719;SDS011;27405;53.316;-6.294;2024-03-22T04:17:49;47.85;;;7.40;;
41719;SDS011;27405;53.316;-6.294;2024-03-22T04:20:14;39.22;;;7.40;;
41719;SDS011;27405;53.316;-6.294;2024-03-22T04:22:40;46.20;;;7.25;;
41719;SDS011;27405;53.316;-6.294;2024-03-22T04:25:06;45.20;;;7.78;;
41719;SDS011;27405;53.316;-6.294;2024-03-22T04:27:35;53.08;;;8.25;;
41719;SDS011;27405;53.316;-6.294;2024-03-22T04:30:01;44.03;;;6.57;;
41719;SDS011;27405;53.316;-6.294;2024-03-22T04:32:27;52.17;;;8.05;;
41719;SDS011;27405;53.316;-6.294;2024-03-22T04:34:53;46.13;;;7.72;;
41719;SDS011;27405;53.316;-6.294;2024-03-22T04:37:20;47.65;;;8.15;;
41719;SDS011;27405;53.316;-6.294;2024-03-22T04:39:45;47.05;;;7.38;;
41719;SDS011;27405;53.316;-6.294;2024-03-22T04:42:11;52.63;;;8.32;;
41719;SDS011;27405;53.316;-6.294;2024-03-22T04:44:37;41.70;;;7.32;;
41719;SDS011;27405;53.316;-6.294;2024-03-22T04:47:02;45.42;;;7.45;;
41719;SDS011;27405;53.316;-6.294;2024-03-22T04:49:28;39.58;;;7.20;;
41719;SDS011;27405;53.316;-6.294;2024-03-22T04:51:54;42.13;;;6.80;;
41719;SDS011;27405;53.316;-6.294;2024-03-22T04:54:20;45.10;;;7.25;;
41719;SDS011;27405;53.316;-6.294;2024-03-22T04:56:45;37.42;;;7.03;;
41719;SDS011;27405;53.316;-6.294;2024-03-22T04:59:11;42.42;;;7.30;;
41719;SDS011;27405;53.316;-6.294;2024-03-22T05:01:36;41.33;;;6.82;;
41719;SDS011;27405;53.316;-6.294;2024-03-22T05:04:02;39.85;;;6.45;;
41719;SDS011;27405;53.316;-6.294;2024-03-22T05:06:28;46.70;;;6.68;;
41719;SDS011;27405;53.316;-6.294;2024-03-22T05:08:53;44.80;;;6.97;;
41719;SDS011;27405;53.316;-6.294;2024-03-22T05:11:19;45.92;;;7.38;;
41719;SDS011;27405;53.316;-6.294;2024-03-22T05:13:44;37.28;;;7.28;;
41719;SDS011;27405;53.316;-6.294;2024-03-22T05:16:11;39.13;;;6.32;;
41719;SDS011;27405;53.316;-6.294;2024-03-22T05:18:37;35.10;;;6.68;;
41719;SDS011;27405;53.316;-6.294;2024-03-22T05:21:03;34.33;;;6.20;;
41719;SDS011;27405;53.316;-6.294;2024-03-22T05:23:29;40.92;;;6.35;;
41719;SDS011;27405;53.316;-6.294;2024-03-22T05:25:54;40.55;;;6.32;;
41719;SDS011;27405;53.316;-6.294;2024-03-22T05:28:20;39.92;;;6.13;;
41719;SDS011;27405;53.316;-6.294;2024-03-22T05:30:46;35.38;;;6.28;;
41719;SDS011;27405;53.316;-6.294;2024-03-22T05:33:12;34.83;;;5.75;;
41719;SDS011;27405;53.316;-6.294;2024-03-22T05:35:37;35.42;;;5.90;;
41719;SDS011;27405;53.316;-6.294;2024-03-22T05:38:03;34.47;;;6.13;;
41719;SDS011;27405;53.316;-6.294;2024-03-22T05:40:29;39.33;;;6.45;;
41719;SDS011;27405;53.316;-6.294;2024-03-22T05:42:56;31.10;;;5.72;;
41719;SDS011;27405;53.316;-6.294;2024-03-22T05:45:21;36.03;;;6.60;;
41719;SDS011;27405;53.316;-6.294;2024-03-22T05:47:47;31.88;;;5.30;;
41719;SDS011;27405;53.316;-6.294;2024-03-22T05:50:13;35.65;;;6.32;;
41719;SDS011;27405;53.316;-6.294;2024-03-22T05:52:39;31.58;;;5.65;;
41719;SDS011;27405;53.316;-6.294;2024-03-22T05:55:05;34.80;;;5.63;;
41719;SDS011;27405;53.316;-6.294;2024-03-22T05:57:31;33.72;;;6.10;;
41719;SDS011;27405;53.316;-6.294;2024-03-22T05:59:56;27.63;;;5.50;;
41719;SDS011;27405;53.316;-6.294;2024-03-22T06:02:22;32.03;;;5.95;;
41719;SDS011;27405;53.316;-6.294;2024-03-22T06:04:48;37.00;;;6.00;;
41719;SDS011;27405;53.316;-6.294;2024-03-22T06:07:14;36.75;;;6.45;;
41719;SDS011;27405;53.316;-6.294;2024-03-22T06:09:41;41.08;;;6.30;;
41719;SDS011;27405;53.316;-6.294;2024-03-22T06:12:14;38.15;;;6.07;;
41719;SDS011;27405;53.316;-6.294;2024-03-22T06:14:40;42.97;;;5.88;;
41719;SDS011;27405;53.316;-6.294;2024-03-22T06:17:06;35.47;;;5.45;;
41719;SDS011;27405;53.316;-6.294;2024-03-22T06:19:32;32.25;;;5.63;;
41719;SDS011;27405;53.316;-6.294;2024-03-22T06:21:58;31.42;;;5.85;;
41719;SDS011;27405;53.316;-6.294;2024-03-22T06:24:23;32.83;;;4.93;;
41719;SDS011;27405;53.316;-6.294;2024-03-22T06:26:49;37.65;;;5.65;;
41719;SDS011;27405;53.316;-6.294;2024-03-22T06:29:15;37.83;;;6.05;;
41719;SDS011;27405;53.316;-6.294;2024-03-22T06:31:43;29.95;;;5.90;;
41719;SDS011;27405;53.316;-6.294;2024-03-22T06:34:09;38.40;;;6.07;;
41719;SDS011;27405;53.316;-6.294;2024-03-22T06:36:35;36.55;;;5.65;;
41719;SDS011;27405;53.316;-6.294;2024-03-22T06:39:00;32.75;;;5.45;;
41719;SDS011;27405;53.316;-6.294;2024-03-22T06:41:28;39.90;;;6.70;;
41719;SDS011;27405;53.316;-6.294;2024-03-22T06:43:53;34.50;;;5.95;;
41719;SDS011;27405;53.316;-6.294;2024-03-22T06:46:19;38.22;;;5.95;;
41719;SDS011;27405;53.316;-6.294;2024-03-22T06:48:45;31.90;;;5.20;;
41719;SDS011;27405;53.316;-6.294;2024-03-22T06:51:11;35.88;;;5.88;;
41719;SDS011;27405;53.316;-6.294;2024-03-22T06:53:37;29.77;;;5.65;;
41719;SDS011;27405;53.316;-6.294;2024-03-22T06:56:03;30.70;;;5.15;;
41719;SDS011;27405;53.316;-6.294;2024-03-22T06:58:29;35.50;;;4.90;;
41719;SDS011;27405;53.316;-6.294;2024-03-22T07:00:55;29.95;;;5.18;;
41719;SDS011;27405;53.316;-6.294;2024-03-22T07:03:20;32.15;;;5.38;;
41719;SDS011;27405;53.316;-6.294;2024-03-22T07:05:49;31.75;;;4.93;;
41719;SDS011;27405;53.316;-6.294;2024-03-22T07:10:40;28.75;;;4.78;;
41719;SDS011;27405;53.316;-6.294;2024-03-22T07:13:06;34.03;;;5.10;;
41719;SDS011;27405;53.316;-6.294;2024-03-22T07:15:33;24.88;;;3.95;;
41719;SDS011;27405;53.316;-6.294;2024-03-22T07:17:58;28.55;;;5.00;;
41719;SDS011;27405;53.316;-6.294;2024-03-22T07:20:25;26.92;;;3.80;;
41719;SDS011;27405;53.316;-6.294;2024-03-22T07:22:51;31.75;;;4.22;;
41719;SDS011;27405;53.316;-6.294;2024-03-22T07:25:17;24.27;;;3.85;;
41719;SDS011;27405;53.316;-6.294;2024-03-22T07:27:42;24.27;;;4.15;;
41719;SDS011;27405;53.316;-6.294;2024-03-22T07:30:08;24.77;;;4.00;;
41719;SDS011;27405;53.316;-6.294;2024-03-22T07:32:34;21.52;;;4.13;;
41719;SDS011;27405;53.316;-6.294;2024-03-22T07:35:00;29.30;;;4.28;;
41719;SDS011;27405;53.316;-6.294;2024-03-22T07:37:26;26.25;;;4.25;;
41719;SDS011;27405;53.316;-6.294;2024-03-22T07:39:52;29.50;;;4.82;;
41719;SDS011;27405;53.316;-6.294;2024-03-22T07:42:17;25.90;;;4.15;;
41719;SDS011;27405;53.316;-6.294;2024-03-22T07:44:43;24.70;;;3.80;;
41719;SDS011;27405;53.316;-6.294;2024-03-22T07:47:08;23.98;;;4.47;;
41719;SDS011;27405;53.316;-6.294;2024-03-22T07:49:34;20.33;;;3.30;;
41719;SDS011;27405;53.316;-6.294;2024-03-22T07:52:01;26.27;;;3.78;;
41719;SDS011;27405;53.316;-6.294;2024-03-22T07:54:27;27.42;;;3.67;;
41719;SDS011;27405;53.316;-6.294;2024-03-22T07:56:53;22.73;;;3.47;;
41719;SDS011;27405;53.316;-6.294;2024-03-22T07:59:18;27.40;;;4.10;;
41719;SDS011;27405;53.316;-6.294;2024-03-22T08:01:44;27.98;;;4.20;;
41719;SDS011;27405;53.316;-6.294;2024-03-22T08:04:10;27.10;;;4.47;;
41719;SDS011;27405;53.316;-6.294;2024-03-22T08:06:35;26.00;;;3.92;;
41719;SDS011;27405;53.316;-6.294;2024-03-22T08:09:01;23.75;;;3.75;;
41719;SDS011;27405;53.316;-6.294;2024-03-22T08:11:28;23.02;;;4.40;;
41719;SDS011;27405;53.316;-6.294;2024-03-22T08:13:53;24.80;;;4.13;;
41719;SDS011;27405;53.316;-6.294;2024-03-22T08:16:26;31.05;;;5.00;;
41719;SDS011;27405;53.316;-6.294;2024-03-22T08:18:52;27.70;;;4.63;;
41719;SDS011;27405;53.316;-6.294;2024-03-22T08:21:18;22.95;;;3.90;;
41719;SDS011;27405;53.316;-6.294;2024-03-22T08:23:44;31.23;;;4.82;;
41719;SDS011;27405;53.316;-6.294;2024-03-22T08:26:10;23.88;;;4.07;;
41719;SDS011;27405;53.316;-6.294;2024-03-22T08:28:35;28.40;;;4.07;;
41719;SDS011;27405;53.316;-6.294;2024-03-22T08:31:04;24.27;;;4.07;;
41719;SDS011;27405;53.316;-6.294;2024-03-22T08:33:30;32.80;;;5.43;;
41719;SDS011;27405;53.316;-6.294;2024-03-22T08:35:56;27.20;;;5.00;;
41719;SDS011;27405;53.316;-6.294;2024-03-22T08:38:21;28.38;;;4.35;;
41719;SDS011;27405;53.316;-6.294;2024-03-22T08:40:48;24.40;;;4.30;;
41719;SDS011;27405;53.316;-6.294;2024-03-22T08:43:15;23.15;;;4.38;;
41719;SDS011;27405;53.316;-6.294;2024-03-22T08:45:41;26.70;;;4.25;;
41719;SDS011;27405;53.316;-6.294;2024-03-22T08:48:07;26.20;;;5.10;;
41719;SDS011;27405;53.316;-6.294;2024-03-22T08:50:32;27.63;;;4.43;;
41719;SDS011;27405;53.316;-6.294;2024-03-22T08:52:58;24.83;;;3.97;;
41719;SDS011;27405;53.316;-6.294;2024-03-22T08:55:24;27.98;;;4.65;;
41719;SDS011;27405;53.316;-6.294;2024-03-22T08:57:49;23.17;;;4.38;;
41719;SDS011;27405;53.316;-6.294;2024-03-22T09:00:16;26.13;;;4.65;;
41719;SDS011;27405;53.316;-6.294;2024-03-22T09:02:42;26.80;;;4.35;;
41719;SDS011;27405;53.316;-6.294;2024-03-22T09:05:08;22.45;;;4.43;;
41719;SDS011;27405;53.316;-6.294;2024-03-22T09:07:33;27.00;;;5.25;;
41719;SDS011;27405;53.316;-6.294;2024-03-22T09:09:59;28.85;;;4.25;;
41719;SDS011;27405;53.316;-6.294;2024-03-22T09:12:25;25.70;;;3.95;;
41719;SDS011;27405;53.316;-6.294;2024-03-22T09:14:50;28.77;;;4.07;;
41719;SDS011;27405;53.316;-6.294;2024-03-22T09:17:16;26.60;;;4.53;;
41719;SDS011;27405;53.316;-6.294;2024-03-22T09:19:42;22.67;;;3.83;;
41719;SDS011;27405;53.316;-6.294;2024-03-22T09:22:08;19.73;;;3.90;;
41719;SDS011;27405;53.316;-6.294;2024-03-22T09:24:34;19.15;;;3.75;;
41719;SDS011;27405;53.316;-6.294;2024-03-22T09:26:59;22.63;;;3.55;;
41719;SDS011;27405;53.316;-6.294;2024-03-22T09:29:25;24.25;;;4.30;;
41719;SDS011;27405;53.316;-6.294;2024-03-22T09:31:51;23.40;;;4.20;;
41719;SDS011;27405;53.316;-6.294;2024-03-22T09:34:16;20.35;;;4.00;;
41719;SDS011;27405;53.316;-6.294;2024-03-22T09:36:42;25.20;;;4.60;;
41719;SDS011;27405;53.316;-6.294;2024-03-22T09:39:07;26.88;;;4.75;;
41719;SDS011;27405;53.316;-6.294;2024-03-22T09:41:33;31.33;;;4.47;;
41719;SDS011;27405;53.316;-6.294;2024-03-22T09:44:07;32.28;;;4.72;;
41719;SDS011;27405;53.316;-6.294;2024-03-22T09:46:38;28.20;;;4.60;;
41719;SDS011;27405;53.316;-6.294;2024-03-22T09:49:05;26.00;;;3.88;;
41719;SDS011;27405;53.316;-6.294;2024-03-22T09:51:32;29.02;;;5.10;;
41719;SDS011;27405;53.316;-6.294;2024-03-22T09:53:59;26.52;;;4.57;;
41719;SDS011;27405;53.316;-6.294;2024-03-22T09:56:26;24.00;;;4.35;;
41719;SDS011;27405;53.316;-6.294;2024-03-22T09:58:55;24.65;;;4.30;;
41719;SDS011;27405;53.316;-6.294;2024-03-22T10:01:21;30.13;;;4.28;;
41719;SDS011;27405;53.316;-6.294;2024-03-22T10:03:48;28.58;;;4.25;;
41719;SDS011;27405;53.316;-6.294;2024-03-22T10:06:16;24.92;;;3.90;;
41719;SDS011;27405;53.316;-6.294;2024-03-22T10:08:42;21.27;;;3.83;;
41719;SDS011;27405;53.316;-6.294;2024-03-22T10:11:08;25.65;;;3.25;;
41719;SDS011;27405;53.316;-6.294;2024-03-22T10:13:33;20.25;;;3.33;;
41719;SDS011;27405;53.316;-6.294;2024-03-22T10:15:59;23.38;;;3.80;;
41719;SDS011;27405;53.316;-6.294;2024-03-22T10:18:25;24.35;;;3.70;;
41719;SDS011;27405;53.316;-6.294;2024-03-22T10:23:30;19.00;;;4.15;;
41719;SDS011;27405;53.316;-6.294;2024-03-22T10:25:59;18.67;;;3.75;;
41719;SDS011;27405;53.316;-6.294;2024-03-22T10:28:26;23.00;;;3.60;;
41719;SDS011;27405;53.316;-6.294;2024-03-22T10:30:52;24.05;;;3.67;;
41719;SDS011;27405;53.316;-6.294;2024-03-22T10:33:21;27.20;;;4.85;;
41719;SDS011;27405;53.316;-6.294;2024-03-22T10:35:57;21.38;;;3.08;;
41719;SDS011;27405;53.316;-6.294;2024-03-22T10:38:24;21.05;;;3.95;;
41719;SDS011;27405;53.316;-6.294;2024-03-22T10:40:50;24.27;;;3.42;;
41719;SDS011;27405;53.316;-6.294;2024-03-22T10:43:16;22.90;;;4.38;;
41719;SDS011;27405;53.316;-6.294;2024-03-22T10:45:43;24.13;;;3.83;;
41719;SDS011;27405;53.316;-6.294;2024-03-22T10:48:15;19.83;;;3.20;;
41719;SDS011;27405;53.316;-6.294;2024-03-22T10:50:45;18.27;;;3.15;;
41719;SDS011;27405;53.316;-6.294;2024-03-22T10:53:12;25.30;;;3.95;;
41719;SDS011;27405;53.316;-6.294;2024-03-22T10:55:43;12.38;;;2.85;;
41719;SDS011;27405;53.316;-6.294;2024-03-22T10:58:17;20.95;;;4.18;;
41719;SDS011;27405;53.316;-6.294;2024-03-22T11:00:46;18.35;;;3.30;;
41719;SDS011;27405;53.316;-6.294;2024-03-22T11:03:15;20.38;;;3.35;;
41719;SDS011;27405;53.316;-6.294;2024-03-22T11:05:47;18.95;;;3.13;;
41719;SDS011;27405;53.316;-6.294;2024-03-22T11:08:22;20.85;;;3.83;;
41719;SDS011;27405;53.316;-6.294;2024-03-22T11:10:52;15.38;;;3.08;;
41719;SDS011;27405;53.316;-6.294;2024-03-22T11:13:18;18.50;;;3.65;;
41719;SDS011;27405;53.316;-6.294;2024-03-22T11:15:47;16.58;;;3.70;;
41719;SDS011;27405;53.316;-6.294;2024-03-22T11:18:13;16.30;;;3.00;;
41719;SDS011;27405;53.316;-6.294;2024-03-22T11:20:39;17.38;;;3.40;;
41719;SDS011;27405;53.316;-6.294;2024-03-22T11:23:04;16.55;;;2.90;;
41719;SDS011;27405;53.316;-6.294;2024-03-22T11:25:31;17.75;;;3.35;;
41719;SDS011;27405;53.316;-6.294;2024-03-22T11:27:58;17.08;;;3.15;;
41719;SDS011;27405;53.316;-6.294;2024-03-22T11:30:25;20.85;;;3.53;;
41719;SDS011;27405;53.316;-6.294;2024-03-22T11:32:55;17.70;;;3.17;;
41719;SDS011;27405;53.316;-6.294;2024-03-22T11:35:21;17.15;;;3.47;;
41719;SDS011;27405;53.316;-6.294;2024-03-22T11:37:48;17.88;;;3.05;;
41719;SDS011;27405;53.316;-6.294;2024-03-22T11:40:14;17.73;;;3.50;;
41719;SDS011;27405;53.316;-6.294;2024-03-22T11:42:41;16.23;;;3.05;;
41719;SDS011;27405;53.316;-6.294;2024-03-22T11:45:10;18.27;;;3.15;;
41719;SDS011;27405;53.316;-6.294;2024-03-22T11:47:38;19.30;;;3.00;;
41719;SDS011;27405;53.316;-6.294;2024-03-22T11:50:04;14.30;;;2.50;;
41719;SDS011;27405;53.316;-6.294;2024-03-22T11:52:30;16.80;;;3.20;;
41719;SDS011;27405;53.316;-6.294;2024-03-22T11:54:56;18.77;;;3.28;;
41719;SDS011;27405;53.316;-6.294;2024-03-22T11:57:22;17.02;;;2.95;;
41719;SDS011;27405;53.316;-6.294;2024-03-22T11:59:49;14.70;;;2.75;;
41719;SDS011;27405;53.316;-6.294;2024-03-22T12:02:16;13.70;;;2.63;;
41719;SDS011;27405;53.316;-6.294;2024-03-22T12:04:42;17.77;;;2.80;;
41719;SDS011;27405;53.316;-6.294;2024-03-22T12:07:13;17.05;;;3.22;;
41719;SDS011;27405;53.316;-6.294;2024-03-22T12:09:39;21.65;;;3.30;;
41719;SDS011;27405;53.316;-6.294;2024-03-22T12:12:11;18.45;;;3.10;;
41719;SDS011;27405;53.316;-6.294;2024-03-22T12:14:38;15.82;;;3.33;;
41719;SDS011;27405;53.316;-6.294;2024-03-22T12:17:04;14.43;;;2.65;;
41719;SDS011;27405;53.316;-6.294;2024-03-22T12:19:31;9.32;;;2.30;;
41719;SDS011;27405;53.316;-6.294;2024-03-22T12:21:56;18.35;;;2.97;;
41719;SDS011;27405;53.316;-6.294;2024-03-22T12:24:25;14.77;;;3.33;;
41719;SDS011;27405;53.316;-6.294;2024-03-22T12:26:52;13.57;;;2.78;;
41719;SDS011;27405;53.316;-6.294;2024-03-22T12:29:18;17.15;;;3.13;;
41719;SDS011;27405;53.316;-6.294;2024-03-22T12:31:44;16.80;;;2.78;;
41719;SDS011;27405;53.316;-6.294;2024-03-22T12:34:10;19.73;;;3.30;;
41719;SDS011;27405;53.316;-6.294;2024-03-22T12:36:37;14.95;;;2.40;;
41719;SDS011;27405;53.316;-6.294;2024-03-22T12:39:02;13.15;;;2.47;;
41719;SDS011;27405;53.316;-6.294;2024-03-22T12:41:29;21.05;;;3.00;;
41719;SDS011;27405;53.316;-6.294;2024-03-22T12:43:56;15.38;;;3.25;;
41719;SDS011;27405;53.316;-6.294;2024-03-22T12:46:21;15.38;;;3.05;;
41719;SDS011;27405;53.316;-6.294;2024-03-22T12:48:47;15.05;;;2.90;;
41719;SDS011;27405;53.316;-6.294;2024-03-22T12:51:13;13.43;;;2.88;;
41719;SDS011;27405;53.316;-6.294;2024-03-22T12:53:39;21.77;;;3.33;;
41719;SDS011;27405;53.316;-6.294;2024-03-22T12:56:05;16.17;;;2.90;;
41719;SDS011;27405;53.316;-6.294;2024-03-22T12:58:31;18.10;;;3.20;;
41719;SDS011;27405;53.316;-6.294;2024-03-22T13:00:57;17.83;;;2.92;;
41719;SDS011;27405;53.316;-6.294;2024-03-22T13:03:24;13.65;;;2.70;;
41719;SDS011;27405;53.316;-6.294;2024-03-22T13:05:50;13.82;;;2.33;;
41719;SDS011;27405;53.316;-6.294;2024-03-22T13:08:16;12.45;;;2.13;;
41719;SDS011;27405;53.316;-6.294;2024-03-22T13:10:41;12.93;;;2.45;;
41719;SDS011;27405;53.316;-6.294;2024-03-22T13:13:09;14.60;;;2.47;;
41719;SDS011;27405;53.316;-6.294;2024-03-22T13:15:35;14.52;;;2.55;;
41719;SDS011;27405;53.316;-6.294;2024-03-22T13:18:03;9.73;;;2.10;;
41719;SDS011;27405;53.316;-6.294;2024-03-22T13:20:29;8.63;;;2.20;;
41719;SDS011;27405;53.316;-6.294;2024-03-22T13:22:54;14.60;;;2.10;;
41719;SDS011;27405;53.316;-6.294;2024-03-22T13:25:20;15.13;;;2.63;;
41719;SDS011;27405;53.316;-6.294;2024-03-22T13:27:46;13.40;;;2.28;;
41719;SDS011;27405;53.316;-6.294;2024-03-22T13:30:12;12.90;;;2.45;;
41719;SDS011;27405;53.316;-6.294;2024-03-22T13:32:39;12.82;;;2.40;;
41719;SDS011;27405;53.316;-6.294;2024-03-22T13:35:05;10.90;;;1.88;;
41719;SDS011;27405;53.316;-6.294;2024-03-22T13:37:31;12.35;;;2.28;;
41719;SDS011;27405;53.316;-6.294;2024-03-22T13:39:57;11.57;;;2.10;;
41719;SDS011;27405;53.316;-6.294;2024-03-22T13:42:24;14.55;;;2.63;;
41719;SDS011;27405;53.316;-6.294;2024-03-22T13:44:51;10.77;;;2.00;;
41719;SDS011;27405;53.316;-6.294;2024-03-22T13:47:16;11.85;;;1.98;;
41719;SDS011;27405;53.316;-6.294;2024-03-22T13:49:43;11.82;;;2.13;;
41719;SDS011;27405;53.316;-6.294;2024-03-22T13:52:09;10.00;;;1.80;;
41719;SDS011;27405;53.316;-6.294;2024-03-22T13:54:35;8.40;;;1.67;;
41719;SDS011;27405;53.316;-6.294;2024-03-22T13:57:01;10.55;;;2.00;;
41719;SDS011;27405;53.316;-6.294;2024-03-22T13:59:30;10.25;;;2.08;;
41719;SDS011;27405;53.316;-6.294;2024-03-22T14:01:56;8.73;;;1.77;;
41719;SDS011;27405;53.316;-6.294;2024-03-22T14:04:25;8.10;;;1.85;;
41719;SDS011;27405;53.316;-6.294;2024-03-22T14:06:54;11.27;;;1.60;;
41719;SDS011;27405;53.316;-6.294;2024-03-22T14:09:19;7.80;;;1.92;;
41719;SDS011;27405;53.316;-6.294;2024-03-22T14:11:45;8.52;;;1.88;;
41719;SDS011;27405;53.316;-6.294;2024-03-22T14:14:13;9.98;;;1.95;;
41719;SDS011;27405;53.316;-6.294;2024-03-22T14:16:39;9.13;;;1.80;;
41719;SDS011;27405;53.316;-6.294;2024-03-22T14:19:06;9.40;;;1.70;;
41719;SDS011;27405;53.316;-6.294;2024-03-22T14:21:33;10.07;;;2.10;;